createdAt,value
2018-06-08T00:00:55.765Z,39.10
2018-06-08T00:03:26.454Z,39.00
2018-06-08T00:05:57.209Z,39.10
2018-06-08T00:08:27.901Z,39.10
2018-06-08T00:10:58.861Z,39.30
2018-06-08T00:13:29.900Z,39.40
2018-06-08T00:16:00.586Z,39.40
2018-06-08T00:18:31.265Z,39.50
2018-06-08T00:21:01.986Z,39.60
2018-06-08T00:23:32.665Z,39.70
2018-06-08T00:26:03.313Z,39.70
2018-06-08T00:28:33.982Z,39.80
2018-06-08T00:31:04.845Z,39.80
2018-06-08T00:33:35.521Z,39.80
2018-06-08T00:36:06.270Z,40.10
2018-06-08T00:38:36.957Z,40.00
2018-06-08T00:41:07.822Z,40.10
2018-06-08T00:43:38.541Z,40.20
2018-06-08T00:46:09.257Z,40.40
2018-06-08T00:48:39.909Z,40.60
2018-06-08T00:53:40.541Z,40.80
2018-06-08T00:56:20.726Z,40.90
2018-06-08T00:58:51.456Z,40.90
2018-06-08T01:01:22.134Z,41.10
2018-06-08T01:03:53.818Z,41.30
2018-06-08T01:06:24.522Z,42.20
2018-06-08T01:08:55.225Z,41.90
2018-06-08T01:11:26.190Z,41.80
2018-06-08T01:13:57.990Z,41.80
2018-06-08T01:16:29.994Z,41.70
2018-06-08T01:19:00.722Z,42.40
2018-06-08T01:24:02.306Z,42.40
2018-06-08T01:26:33.065Z,41.60
2018-06-08T01:29:04.006Z,42.10
2018-06-08T01:31:34.688Z,42.10
2018-06-08T01:34:05.352Z,42.10
2018-06-08T01:39:10.130Z,42.50
2018-06-08T01:41:40.839Z,42.60
2018-06-08T01:44:11.527Z,42.70
2018-06-08T01:46:42.554Z,42.90
2018-06-08T01:49:13.257Z,42.90
2018-06-08T01:54:15.809Z,43.20
2018-06-08T01:56:48.537Z,43.30
2018-06-08T02:01:49.388Z,43.40
2018-06-08T02:04:20.134Z,43.40
2018-06-08T02:09:20.822Z,43.80
2018-06-08T02:11:51.525Z,43.80
2018-06-08T02:14:22.217Z,44.00
2018-06-08T02:16:52.869Z,44.10
2018-06-08T02:19:24.629Z,44.20
2018-06-08T02:21:55.664Z,44.30
2018-06-08T02:24:26.380Z,44.50
2018-06-08T02:26:57.041Z,44.60
2018-06-08T02:29:28.186Z,44.70
2018-06-08T02:31:59.108Z,44.80
2018-06-08T02:34:30.010Z,44.90
2018-06-08T02:37:00.910Z,44.90
2018-06-08T02:39:31.793Z,45.00
2018-06-08T02:42:02.617Z,44.90
2018-06-08T02:47:04.096Z,45.10
2018-06-08T02:52:06.295Z,45.20
2018-06-08T02:54:37.192Z,45.40
2018-06-08T02:57:10.337Z,45.80
2018-06-08T02:59:41.126Z,45.70
2018-06-08T03:02:11.917Z,46.10
2018-06-08T03:04:43.116Z,46.10
2018-06-08T03:09:44.017Z,46.80
2018-06-08T03:12:14.812Z,47.00
2018-06-08T03:17:15.832Z,47.50
2018-06-08T03:19:46.923Z,47.70
2018-06-08T03:22:17.766Z,47.70
2018-06-08T03:24:48.555Z,47.80
2018-06-08T03:27:19.406Z,47.80
2018-06-08T03:29:50.209Z,48.20
2018-06-08T03:32:21.220Z,48.40
2018-06-08T03:34:52.410Z,48.60
2018-06-08T03:39:54.029Z,49.10
2018-06-08T03:42:24.858Z,49.50
2018-06-08T03:44:55.741Z,49.60
2018-06-08T03:47:26.615Z,49.90
2018-06-08T03:49:57.669Z,50.20
2018-06-08T03:52:28.469Z,50.20
2018-06-08T03:54:59.326Z,50.20
2018-06-08T04:00:00.124Z,50.00
2018-06-08T04:02:31.069Z,49.80
2018-06-08T04:05:01.974Z,49.70
2018-06-08T04:07:32.847Z,49.70
2018-06-08T04:10:03.757Z,49.20
2018-06-08T04:12:36.738Z,49.20
2018-06-08T04:15:07.782Z,49.10
2018-06-08T04:17:40.169Z,49.50
2018-06-08T04:20:11.018Z,49.40
2018-06-08T04:22:41.907Z,49.10
2018-06-08T04:25:12.947Z,49.30
2018-06-08T04:27:44.976Z,49.50
2018-06-08T04:30:16.356Z,49.50
2018-06-08T04:32:48.248Z,49.40
2018-06-08T04:37:51.807Z,49.60
2018-06-08T04:40:24.875Z,49.70
2018-06-08T04:45:26.548Z,49.30
2018-06-08T04:50:28.237Z,49.00
2018-06-08T04:53:00.468Z,48.80
2018-06-08T04:55:32.639Z,48.70
2018-06-08T04:58:03.415Z,48.60
2018-06-08T05:00:34.312Z,48.80
2018-06-08T05:03:05.205Z,48.90
2018-06-08T05:05:35.990Z,49.00
2018-06-08T05:08:06.923Z,49.10
2018-06-08T05:13:07.787Z,48.60
2018-06-08T05:18:09.233Z,48.30
2018-06-08T05:20:40.068Z,48.00
2018-06-08T05:23:10.951Z,48.50
2018-06-08T05:25:41.919Z,48.50
2018-06-08T05:28:12.881Z,48.40
2018-06-08T05:30:43.833Z,48.40
2018-06-08T05:33:14.625Z,48.30
2018-06-08T05:35:45.880Z,48.40
2018-06-08T05:38:16.692Z,48.50
2018-06-08T05:43:17.829Z,48.40
2018-06-08T05:45:48.931Z,48.30
2018-06-08T05:48:20.291Z,48.40
2018-06-08T05:50:51.139Z,48.40
2018-06-08T05:53:22.003Z,48.10
2018-06-08T05:55:52.810Z,48.00
2018-06-08T05:58:23.621Z,48.10
2018-06-08T06:00:54.687Z,48.20
2018-06-08T06:03:25.864Z,48.20
2018-06-08T06:05:56.829Z,48.20
2018-06-08T06:08:27.700Z,48.00
2018-06-08T06:10:58.619Z,47.80
2018-06-08T06:13:29.466Z,47.70
2018-06-08T06:16:00.617Z,47.70
2018-06-08T06:21:00.792Z,47.50
2018-06-08T06:23:31.699Z,47.40
2018-06-08T06:26:02.698Z,47.50
2018-06-08T06:28:33.508Z,47.40
2018-06-08T06:31:04.605Z,47.10
2018-06-08T06:33:35.445Z,46.90
2018-06-08T06:36:07.413Z,47.40
2018-06-08T06:38:38.262Z,46.70
2018-06-08T06:41:09.343Z,46.60
2018-06-08T06:43:40.156Z,46.40
2018-06-08T06:46:11.022Z,46.10
2018-06-08T06:48:41.840Z,45.70
2018-06-08T06:51:12.687Z,45.70
2018-06-08T06:53:43.495Z,45.80
2018-06-08T06:56:14.351Z,45.70
2018-06-08T06:58:45.305Z,46.20
2018-06-08T07:01:16.766Z,45.10
2018-06-08T07:03:47.804Z,45.10
2018-06-08T07:06:18.678Z,45.20
2018-06-08T07:11:19.839Z,45.40
2018-06-08T07:13:54.471Z,45.40
2018-06-08T07:16:25.700Z,45.20
2018-06-08T07:18:56.494Z,45.10
2018-06-08T07:21:27.430Z,45.30
2018-06-08T07:23:58.300Z,45.00
2018-06-08T07:26:30.833Z,45.10
2018-06-08T07:29:01.506Z,44.80
2018-06-08T07:31:32.245Z,44.60
2018-06-08T07:34:03.044Z,44.50
2018-06-08T07:36:34.785Z,44.90
2018-06-08T07:41:37.399Z,44.80
2018-06-08T07:44:08.111Z,44.80
2018-06-08T07:46:39.042Z,44.90
2018-06-08T07:49:09.717Z,44.60
2018-06-08T07:51:40.386Z,44.60
2018-06-08T07:54:11.076Z,44.60
2018-06-08T08:01:41.982Z,44.90
2018-06-08T08:04:12.673Z,44.20
2018-06-08T08:06:43.394Z,44.30
2018-06-08T08:09:14.081Z,44.50
2018-06-08T08:11:45.254Z,44.30
2018-06-08T08:14:15.922Z,44.20
2018-06-08T08:16:46.605Z,43.70
2018-06-08T08:19:17.344Z,43.30
2018-06-08T08:21:48.635Z,43.40
2018-06-08T08:24:19.394Z,43.20
2018-06-08T08:26:50.066Z,42.70
2018-06-08T08:29:20.750Z,42.70
2018-06-08T08:31:51.426Z,42.70
2018-06-08T08:34:22.490Z,42.70
2018-06-08T08:36:53.166Z,43.00
2018-06-08T08:39:23.882Z,42.90
2018-06-08T08:41:54.562Z,43.10
2018-06-08T08:44:25.250Z,42.60
2018-06-08T08:46:56.066Z,42.60
2018-06-08T08:49:26.714Z,42.70
2018-06-08T08:51:57.476Z,42.50
2018-06-08T08:54:28.131Z,43.00
2018-06-08T08:56:58.938Z,41.70
2018-06-08T08:59:29.646Z,41.70
2018-06-08T09:02:00.330Z,41.40
2018-06-08T09:04:31.054Z,41.30
2018-06-08T09:07:01.705Z,41.40
2018-06-08T09:09:32.397Z,41.30
2018-06-08T09:12:03.099Z,41.10
2018-06-08T09:14:33.779Z,40.70
2018-06-08T09:17:04.443Z,40.40
2018-06-08T09:19:35.390Z,40.20
2018-06-08T09:22:06.132Z,40.30
2018-06-08T09:24:36.821Z,40.10
2018-06-08T09:27:07.514Z,39.80
2018-06-08T09:29:38.246Z,39.60
2018-06-08T09:32:09.000Z,39.70
2018-06-08T09:34:39.681Z,39.70
2018-06-08T09:37:10.376Z,40.00
2018-06-08T09:39:41.062Z,39.20
2018-06-08T09:42:11.712Z,39.10
2018-06-08T09:44:42.696Z,38.60
2018-06-08T09:49:43.367Z,38.20
2018-06-08T09:57:15.286Z,38.20
2018-06-08T09:59:45.993Z,38.40
2018-06-08T10:04:46.627Z,37.80
2018-06-08T10:07:17.566Z,37.70
2018-06-08T10:09:48.274Z,37.60
2018-06-08T10:12:18.941Z,37.60
2018-06-08T10:14:49.669Z,37.30
2018-06-08T10:17:20.409Z,37.00
2018-06-08T10:19:51.214Z,36.80
2018-06-08T10:22:21.899Z,36.70
2018-06-08T10:24:52.582Z,36.60
2018-06-08T10:27:23.344Z,36.50
2018-06-08T10:29:54.123Z,36.40
2018-06-08T10:37:25.620Z,36.30
2018-06-08T10:39:56.489Z,36.50
2018-06-08T10:42:27.488Z,36.40
2018-06-08T10:47:28.597Z,36.10
2018-06-08T10:49:59.543Z,35.50
2018-06-08T10:52:30.332Z,35.70
2018-06-08T10:55:01.119Z,36.10
2018-06-08T10:57:32.442Z,35.60
2018-06-08T11:00:03.138Z,35.70
2018-06-08T11:02:33.816Z,35.70
2018-06-08T11:05:04.692Z,35.70
2018-06-08T11:07:35.623Z,35.20
2018-06-08T11:10:06.310Z,34.80
2018-06-08T11:12:36.994Z,35.00
2018-06-08T11:15:07.664Z,35.20
2018-06-08T11:17:38.362Z,35.20
2018-06-08T11:20:09.055Z,35.00
2018-06-08T11:22:39.798Z,35.40
2018-06-08T11:27:40.419Z,34.40
2018-06-08T11:30:11.082Z,34.30
2018-06-08T11:32:41.797Z,34.10
2018-06-08T11:35:12.486Z,33.90
2018-06-08T11:37:43.261Z,33.80
2018-06-08T11:40:13.914Z,33.40
2018-06-08T11:42:44.630Z,33.40
2018-06-08T11:45:15.695Z,32.90
2018-06-08T11:47:46.370Z,33.00
2018-06-08T11:50:17.103Z,33.90
2018-06-08T11:52:47.820Z,33.10
2018-06-08T11:55:18.572Z,32.90
2018-06-08T12:00:19.250Z,32.60
2018-06-08T12:02:49.952Z,32.40
2018-06-08T12:05:20.698Z,32.20
2018-06-08T12:10:21.286Z,31.30
2018-06-08T12:12:51.985Z,31.60
2018-06-08T12:15:22.661Z,31.70
2018-06-08T12:17:53.382Z,31.60
2018-06-08T12:20:24.170Z,31.20
2018-06-08T12:22:54.821Z,31.20
2018-06-08T12:25:25.581Z,31.20
2018-06-08T12:27:56.230Z,31.30
2018-06-08T12:30:26.917Z,31.30
2018-06-08T12:32:57.574Z,31.30
2018-06-08T12:37:58.743Z,31.40
2018-06-08T12:40:29.884Z,31.40
2018-06-08T12:43:01.280Z,31.50
2018-06-08T12:45:31.982Z,31.40
2018-06-08T12:48:03.018Z,31.00
2018-06-08T12:53:04.283Z,30.90
2018-06-08T12:58:05.001Z,30.50
2018-06-08T13:00:35.661Z,30.30
2018-06-08T13:03:06.815Z,30.30
2018-06-08T13:05:37.482Z,30.30
2018-06-08T13:08:08.203Z,30.20
2018-06-08T13:15:39.169Z,30.00
2018-06-08T13:18:09.860Z,30.00
2018-06-08T13:20:40.673Z,29.40
2018-06-08T13:23:11.462Z,29.70
2018-06-08T13:25:42.391Z,29.60
2018-06-08T13:28:13.070Z,29.70
2018-06-08T13:33:14.137Z,29.90
2018-06-08T13:35:44.817Z,29.80
2018-06-08T13:38:15.616Z,29.50
2018-06-08T13:40:46.322Z,29.80
2018-06-08T13:43:17.010Z,29.70
2018-06-08T13:45:47.673Z,29.50
2018-06-08T13:48:18.397Z,29.40
2018-06-08T13:50:49.097Z,29.70
2018-06-08T13:55:49.717Z,29.40
2018-06-08T13:58:20.538Z,29.40
2018-06-08T14:00:51.364Z,29.30
2018-06-08T14:03:22.085Z,29.30
2018-06-08T14:05:52.886Z,29.30
2018-06-08T14:08:23.903Z,29.40
2018-06-08T14:10:54.695Z,29.20
2018-06-08T14:15:55.688Z,29.10
2018-06-08T14:18:26.376Z,29.20
2018-06-08T14:20:57.363Z,29.70
2018-06-08T14:23:28.474Z,29.20
2018-06-08T14:25:59.425Z,29.40
2018-06-08T14:28:30.427Z,29.40
2018-06-08T14:31:01.404Z,29.40
2018-06-08T14:33:32.353Z,29.20
2018-06-08T14:36:03.074Z,29.40
2018-06-08T14:41:03.938Z,29.20
2018-06-08T14:46:04.630Z,29.30
2018-06-08T14:48:36.219Z,29.70
2018-06-08T14:51:07.185Z,29.70
2018-06-08T14:53:37.894Z,29.70
2018-06-08T14:56:08.632Z,29.80
2018-06-08T14:58:39.801Z,29.80
2018-06-08T15:03:41.310Z,29.80
2018-06-08T15:06:12.458Z,29.70
2018-06-08T15:11:08.689Z,29.50
2018-06-08T15:13:40.161Z,29.40
2018-06-08T15:16:11.154Z,29.60
2018-06-08T15:18:42.160Z,29.60
2018-06-08T15:21:13.027Z,29.50
2018-06-08T15:23:43.869Z,29.50
2018-06-08T15:28:44.988Z,29.80
2018-06-08T15:31:15.791Z,29.60
2018-06-08T15:33:46.561Z,29.60
2018-06-08T15:36:17.309Z,29.80
2018-06-08T15:38:52.351Z,29.80
2018-06-08T15:41:23.041Z,29.90
2018-06-08T15:43:53.895Z,30.00
2018-06-08T15:51:25.065Z,30.30
2018-06-08T15:53:55.917Z,30.10
2018-06-08T15:56:27.510Z,30.20
2018-06-08T15:58:58.972Z,30.10
2018-06-08T16:01:29.785Z,30.10
2018-06-08T16:04:00.615Z,30.00
2018-06-08T16:09:01.399Z,30.30
2018-06-08T16:11:32.094Z,30.20
2018-06-08T16:14:02.906Z,30.20
2018-06-08T16:16:33.642Z,30.20
2018-06-08T16:19:04.383Z,30.20
2018-06-08T16:21:36.109Z,30.30
2018-06-08T16:24:06.838Z,30.30
2018-06-08T16:29:07.850Z,30.20
2018-06-08T16:31:39.072Z,30.20
2018-06-08T16:34:09.798Z,30.10
2018-06-08T16:36:40.509Z,30.10
2018-06-08T16:39:11.174Z,30.30
2018-06-08T16:41:41.961Z,30.30
2018-06-08T16:46:43.345Z,30.50
2018-06-08T16:49:14.067Z,30.50
2018-06-08T16:51:44.843Z,30.50
2018-06-08T16:54:15.562Z,30.70
2018-06-08T16:59:16.227Z,30.90
2018-06-08T17:01:47.006Z,31.00
2018-06-08T17:04:17.682Z,31.10
2018-06-08T17:06:48.531Z,31.30
2018-06-08T17:09:19.365Z,31.40
2018-06-08T17:14:20.446Z,31.40
2018-06-08T17:16:51.202Z,31.40
2018-06-08T17:19:21.871Z,31.60
2018-06-08T17:21:52.566Z,31.70
2018-06-08T17:24:23.490Z,31.90
2018-06-08T17:29:24.090Z,32.00
2018-06-08T17:31:54.813Z,32.00
2018-06-08T17:34:25.490Z,31.90
2018-06-08T17:39:26.706Z,32.20
2018-06-08T17:41:57.528Z,32.40
2018-06-08T17:44:28.285Z,32.50
2018-06-08T17:46:59.098Z,32.60
2018-06-08T17:51:59.971Z,32.90
2018-06-08T17:54:31.786Z,32.90
2018-06-08T17:57:02.668Z,33.10
2018-06-08T17:59:33.563Z,33.50
2018-06-08T18:02:04.794Z,33.40
2018-06-08T18:04:35.632Z,33.50
2018-06-08T18:07:06.743Z,33.40
2018-06-08T18:12:08.319Z,33.50
2018-06-08T18:14:39.154Z,33.70
2018-06-08T18:19:39.906Z,33.80
2018-06-08T18:22:10.766Z,33.90
2018-06-08T18:24:41.658Z,34.10
2018-06-08T18:27:12.644Z,34.20
2018-06-08T18:29:43.569Z,34.30
2018-06-08T18:34:44.433Z,34.20
2018-06-08T18:37:15.257Z,34.30
2018-06-08T18:39:46.209Z,34.50
2018-06-08T18:42:16.990Z,34.70
2018-06-08T18:44:47.786Z,34.90
2018-06-08T18:47:18.605Z,35.50
2018-06-08T18:49:49.460Z,35.30
2018-06-08T18:52:20.213Z,35.50
2018-06-08T18:57:21.166Z,35.90
2018-06-08T19:02:22.431Z,36.50
2018-06-08T19:04:53.330Z,36.40
2018-06-08T19:07:24.131Z,36.20
2018-06-08T19:09:54.976Z,36.30
2018-06-08T19:14:56.275Z,38.10
2018-06-08T19:17:27.124Z,37.50
2018-06-08T19:19:58.020Z,37.60
2018-06-08T19:24:58.902Z,37.90
2018-06-08T19:27:29.869Z,38.10
2018-06-08T19:30:00.714Z,38.40
2018-06-08T19:32:31.545Z,38.60
2018-06-08T19:35:02.311Z,38.60
2018-06-08T19:37:33.201Z,38.70
2018-06-08T19:40:04.133Z,39.80
2018-06-08T19:42:35.007Z,40.00
2018-06-08T19:45:06.191Z,39.40
2018-06-08T19:47:37.449Z,39.40
2018-06-08T19:52:38.384Z,39.90
2018-06-08T19:55:09.212Z,39.80
2018-06-08T19:57:40.171Z,39.90
2018-06-08T20:00:11.007Z,40.20
2018-06-08T20:02:41.905Z,40.30
2018-06-08T20:05:12.902Z,40.50
2018-06-08T20:07:43.771Z,40.70
2018-06-08T20:10:14.516Z,40.80
2018-06-08T20:12:46.003Z,41.00
2018-06-08T20:15:18.730Z,41.20
2018-06-08T20:17:49.803Z,41.30
2018-06-08T20:20:20.669Z,41.70
2018-06-08T20:22:51.385Z,41.90
2018-06-08T20:25:22.253Z,42.20
2018-06-08T20:27:53.123Z,42.50
2018-06-08T20:30:23.973Z,42.90
2018-06-08T20:32:54.790Z,43.50
2018-06-08T20:35:25.522Z,43.40
2018-06-08T20:37:56.367Z,43.20
2018-06-08T20:40:27.137Z,43.90
2018-06-08T20:42:58.411Z,44.10
2018-06-08T20:45:29.211Z,44.80
2018-06-08T20:50:30.422Z,46.30
2018-06-08T20:53:01.211Z,46.20
2018-06-08T20:55:32.151Z,46.30
2018-06-08T21:03:03.426Z,46.90
2018-06-08T21:05:34.568Z,47.20
2018-06-08T21:08:05.367Z,49.20
2018-06-08T21:10:36.108Z,50.10
2018-06-08T21:13:06.881Z,49.20
2018-06-08T21:15:38.557Z,49.00
2018-06-08T21:18:10.625Z,51.80
2018-06-08T21:23:12.057Z,50.80
2018-06-08T21:25:43.019Z,50.50
2018-06-08T21:28:13.901Z,52.60
2018-06-08T21:30:44.787Z,52.60
2018-06-08T21:33:15.573Z,51.70
2018-06-08T21:35:46.338Z,52.30
2018-06-08T21:38:17.117Z,51.80
2018-06-08T21:40:47.986Z,52.00
2018-06-08T21:43:18.736Z,52.10
2018-06-08T21:45:49.799Z,52.10
2018-06-08T21:48:20.634Z,52.00
2018-06-08T21:50:51.399Z,53.60
2018-06-08T21:53:22.110Z,52.10
2018-06-08T21:55:52.931Z,52.40
2018-06-08T21:58:23.656Z,52.60
2018-06-08T22:00:54.369Z,52.80
2018-06-08T22:03:25.134Z,52.80
2018-06-08T22:05:55.890Z,52.90
2018-06-08T22:08:26.714Z,53.00
2018-06-08T22:10:57.489Z,53.00
2018-06-08T22:13:28.240Z,53.20
2018-06-08T22:15:59.346Z,53.20
2018-06-08T22:21:01.262Z,53.40
2018-06-08T22:23:32.466Z,53.50
2018-06-08T22:26:03.294Z,53.60
2018-06-08T22:28:33.987Z,53.70
2018-06-08T22:31:05.077Z,53.90
2018-06-08T22:36:05.761Z,54.30
2018-06-08T22:38:36.429Z,54.30
2018-06-08T22:41:07.161Z,54.40
2018-06-08T22:43:37.809Z,54.50
2018-06-08T22:46:08.486Z,54.50
2018-06-08T22:48:39.149Z,54.90
2018-06-08T22:51:09.853Z,54.90
2018-06-08T22:53:40.552Z,55.10
2018-06-08T22:56:11.261Z,55.20
2018-06-08T22:58:41.902Z,55.50
2018-06-08T23:01:12.642Z,55.70
2018-06-08T23:03:43.313Z,55.90
2018-06-08T23:06:14.392Z,55.90
2018-06-08T23:08:45.065Z,56.20
2018-06-08T23:11:16.194Z,56.50
2018-06-08T23:13:46.883Z,57.00
2018-06-08T23:16:17.863Z,57.50
2018-06-08T23:18:48.521Z,56.80
2018-06-08T23:21:19.164Z,57.10
2018-06-08T23:23:49.837Z,57.00
2018-06-08T23:26:20.566Z,57.00
2018-06-08T23:28:51.281Z,57.10
2018-06-08T23:31:22.334Z,57.20
2018-06-08T23:33:53.294Z,57.20
2018-06-08T23:36:23.950Z,57.50
2018-06-08T23:38:54.630Z,57.80
2018-06-08T23:41:25.581Z,57.50
2018-06-08T23:43:56.523Z,57.60
2018-06-08T23:46:27.161Z,58.00
2018-06-08T23:48:57.843Z,57.80
2018-06-08T23:51:28.490Z,58.00
2018-06-08T23:53:59.198Z,58.10
2018-06-08T23:56:29.955Z,58.00
2018-06-08T23:59:00.669Z,58.00
